ADDS METAR Data INFO
IDs: Format: Raw Decoded Include TAF

Data at: 1642 UTC 08 Feb 2016

Region: TOP
KATL 081552Z 31009KT 10SM BKN050 BKN100 BKN250 07/M02 A2985 RMK AO2 SLP110 VIRGA OHD & ALQDS T00721017

KBOS 081554Z 36018G25KT 1/2SM R04R/2600V4500FT SN FZFG VV013 M08/M10 A2986 RMK AO2 PK WND 36029/1520 SLP110 P0002 T10781100 $

KBWI 081636Z 13005KT 10SM SCT029 SCT090 BKN180 BKN250 06/M02 A2976 RMK AO2 T00611022

KCLE 081551Z 00000KT 1/2SM SN FG SCT004 OVC008 01/M01 A2963 RMK AO2 RAE25SNB12 SLP039 P0010 T00061006

KCLT 081552Z 23007KT 10SM SCT110 09/M04 A2978 RMK AO2 SLP084 T00941039

KCVG 081636Z 27007KT 10SM SCT014 OVC034 03/00 A2966 RMK AO2

KDCA 081552Z 08006KT 10SM FEW140 BKN230 07/M02 A2980 RMK AO2 SLP090 T00671022

KDEN 081553Z 08003KT 10SM FEW080 SCT150 BKN220 M05/M11 A3038 RMK AO2 SLP335 T10501106

KDFW 081553Z 33019G27KT 10SM FEW300 09/M09 A3036 RMK AO2 PK WND 33027/1549 SLP280 T00891089

KDTW 081553Z 30005KT 10SM OVC095 04/M01 A2961 RMK AO2 SLP031 T00391011

KEWR 081551Z 05011KT 9SM -SN FEW015 BKN036 OVC060 02/M03 A2981 RMK AO2 SNB36 SLP093 VIS LWR NE-S P0000 T00171028

KFLL 081553Z 32012G18KT 10SM CLR 16/03 A3014 RMK AO2 SLP206 T01610028

KIAD 081552Z VRB03KT 10SM FEW150 SCT200 06/M05 A2978 RMK AO2 SLP086 T00561050

KIAH 081553Z 35014G21KT 10SM FEW250 13/M08 A3036 RMK AO2 SLP280 T01281083

KJFK 081551Z 36012G17KT 1/2SM R04R/2200V5000FT -SN BR VV006 M01/M02 A2981 RMK AO2 SFC VIS 3/4 SLP095 P0007 T10061022

KLAS 081556Z 02008KT 10SM CLR 11/M04 A3043 RMK AO2 SLP301 T01111044

KLAX 081553Z 00000KT 10SM CLR 19/M02 A3013 RMK AO2 SLP201 T01891017

KLGA 081551Z 36008KT 3/4SM R04/5000VP6000FT -SN BR BKN008 OVC014 00/M02 A2981 RMK AO2 SLP093 P0004 T00001022 $

KMCO 081553Z 26006KT 10SM FEW050 SCT300 15/01 A3010 RMK AO2 SLP190 T01500006

KMDW 081628Z 28014KT 10SM BKN022 OVC050 M01/M07 A2967 RMK AO2 T10061067

KMEM 081554Z 30017G28KT 10SM FEW050 07/M06 A2994 RMK AO2 PK WND 30032/1533 SLP140 T00721056

KMIA 081553Z 30007KT 10SM SCT300 16/03 A3015 RMK AO2 SLP211 T01560028

KMSP 081553Z 32016G26KT 9SM OVC039 M11/M16 A2994 RMK AO2 PK WND 32029/1500 SLP154 T11111161

KORD 081551Z 28009KT 10SM OVC020 M02/M05 A2965 RMK AO2 SNE37 SLP047 P0000 T10171050

KPDX 081613Z 00000KT 10SM R10R/1800V2400FT MIFG FEW001 FEW250 04/03 A3045 RMK AO2 T00390028

KPHL 081554Z 02012KT 10SM OVC030 05/M03 A2978 RMK AO2 SLP084 T00501028

KPHX 081551Z 05008KT 10SM FEW250 18/M08 A3022 RMK AO2 SLP223 T01831078

KPIT 081551Z 14006KT 10SM SCT065 OVC080 04/M05 A2961 RMK AO2 SLP042 T00391050

KSAN 081551Z 00000KT 10SM CLR 16/M01 A3012 RMK AO2 SLP198 T01611006

KSEA 081553Z 36003KT 10SM SCT250 04/03 A3045 RMK AO2 SLP322 T00440033

KSFO 081556Z 13008KT 10SM CLR 12/08 A3024 RMK AO2 SLP238 T01220078

KSLC 081553Z 15007KT 6SM HZ BKN200 M03/M06 A3070 RMK AO2 SLP419 T10281061 $

KSTL 081551Z 31015G23KT 10SM SCT031 BKN046 BKN200 M02/M08 A2987 RMK AO2 PK WND 29027/1529 SNE29 SLP123 P0000 T10171083

KTPA 081553Z 19009KT 10SM FEW045 BKN250 15/07 A3011 RMK AO2 SLP195 T01500067